sensor_id;sensor_type;location;lat;lon;timestamp;P1;durP1;ratioP1;P2;durP2;ratioP2
68944;SDS011;55984;48.790;8.990;2023-04-19T00:00:55;30.50;;;14.77;;
68944;SDS011;55984;48.790;8.990;2023-04-19T00:03:21;34.43;;;16.40;;
68944;SDS011;55984;48.790;8.990;2023-04-19T00:05:50;30.90;;;15.97;;
68944;SDS011;55984;48.790;8.990;2023-04-19T00:08:18;28.93;;;13.47;;
68944;SDS011;55984;48.790;8.990;2023-04-19T00:10:45;31.93;;;15.10;;
68944;SDS011;55984;48.790;8.990;2023-04-19T00:13:10;31.20;;;15.23;;
68944;SDS011;55984;48.790;8.990;2023-04-19T00:15:36;31.83;;;15.40;;
68944;SDS011;55984;48.790;8.990;2023-04-19T00:18:03;33.00;;;15.80;;
68944;SDS011;55984;48.790;8.990;2023-04-19T00:20:29;31.60;;;15.70;;
68944;SDS011;55984;48.790;8.990;2023-04-19T00:22:55;34.83;;;14.97;;
68944;SDS011;55984;48.790;8.990;2023-04-19T00:25:23;34.27;;;16.60;;
68944;SDS011;55984;48.790;8.990;2023-04-19T00:27:49;40.67;;;16.53;;
68944;SDS011;55984;48.790;8.990;2023-04-19T00:30:14;32.70;;;15.17;;
68944;SDS011;55984;48.790;8.990;2023-04-19T00:32:40;33.63;;;15.60;;
68944;SDS011;55984;48.790;8.990;2023-04-19T00:35:06;33.37;;;16.30;;
68944;SDS011;55984;48.790;8.990;2023-04-19T00:37:32;32.40;;;15.80;;
68944;SDS011;55984;48.790;8.990;2023-04-19T00:39:58;32.93;;;15.03;;
68944;SDS011;55984;48.790;8.990;2023-04-19T00:42:24;33.67;;;15.10;;
68944;SDS011;55984;48.790;8.990;2023-04-19T00:44:50;36.53;;;16.40;;
68944;SDS011;55984;48.790;8.990;2023-04-19T00:47:16;36.20;;;16.20;;
68944;SDS011;55984;48.790;8.990;2023-04-19T00:49:42;38.03;;;17.03;;
68944;SDS011;55984;48.790;8.990;2023-04-19T00:52:08;32.17;;;16.13;;
68944;SDS011;55984;48.790;8.990;2023-04-19T00:54:34;38.67;;;17.43;;
68944;SDS011;55984;48.790;8.990;2023-04-19T00:57:00;35.50;;;16.10;;
68944;SDS011;55984;48.790;8.990;2023-04-19T00:59:26;36.83;;;16.73;;
68944;SDS011;55984;48.790;8.990;2023-04-19T01:01:55;37.70;;;16.87;;
68944;SDS011;55984;48.790;8.990;2023-04-19T01:04:21;33.20;;;15.33;;
68944;SDS011;55984;48.790;8.990;2023-04-19T01:06:47;38.60;;;16.00;;
68944;SDS011;55984;48.790;8.990;2023-04-19T01:09:15;38.20;;;17.10;;
68944;SDS011;55984;48.790;8.990;2023-04-19T01:11:41;43.17;;;16.67;;
68944;SDS011;55984;48.790;8.990;2023-04-19T01:14:12;35.07;;;16.07;;
68944;SDS011;55984;48.790;8.990;2023-04-19T01:16:38;39.60;;;17.40;;
68944;SDS011;55984;48.790;8.990;2023-04-19T01:19:03;38.40;;;16.73;;
68944;SDS011;55984;48.790;8.990;2023-04-19T01:21:30;38.33;;;17.23;;
68944;SDS011;55984;48.790;8.990;2023-04-19T01:23:56;34.77;;;16.67;;
68944;SDS011;55984;48.790;8.990;2023-04-19T01:26:22;36.63;;;16.13;;
68944;SDS011;55984;48.790;8.990;2023-04-19T01:28:49;34.20;;;15.67;;
68944;SDS011;55984;48.790;8.990;2023-04-19T01:31:24;37.43;;;16.73;;
68944;SDS011;55984;48.790;8.990;2023-04-19T01:33:50;32.63;;;16.50;;
68944;SDS011;55984;48.790;8.990;2023-04-19T01:36:16;37.73;;;16.57;;
68944;SDS011;55984;48.790;8.990;2023-04-19T01:38:42;36.47;;;16.20;;
68944;SDS011;55984;48.790;8.990;2023-04-19T01:41:16;39.17;;;16.50;;
68944;SDS011;55984;48.790;8.990;2023-04-19T01:43:42;37.57;;;16.80;;
68944;SDS011;55984;48.790;8.990;2023-04-19T01:46:08;36.70;;;16.90;;
68944;SDS011;55984;48.790;8.990;2023-04-19T01:48:33;40.47;;;17.13;;
68944;SDS011;55984;48.790;8.990;2023-04-19T01:50:59;36.20;;;17.33;;
68944;SDS011;55984;48.790;8.990;2023-04-19T01:53:25;36.60;;;17.70;;
68944;SDS011;55984;48.790;8.990;2023-04-19T01:55:51;38.93;;;17.13;;
68944;SDS011;55984;48.790;8.990;2023-04-19T01:58:17;35.23;;;17.13;;
68944;SDS011;55984;48.790;8.990;2023-04-19T02:00:48;33.50;;;16.13;;
68944;SDS011;55984;48.790;8.990;2023-04-19T02:03:15;38.20;;;17.10;;
68944;SDS011;55984;48.790;8.990;2023-04-19T02:05:48;38.87;;;15.67;;
68944;SDS011;55984;48.790;8.990;2023-04-19T02:08:14;39.37;;;17.53;;
68944;SDS011;55984;48.790;8.990;2023-04-19T02:10:42;40.70;;;17.47;;
68944;SDS011;55984;48.790;8.990;2023-04-19T02:13:11;39.90;;;17.63;;
68944;SDS011;55984;48.790;8.990;2023-04-19T02:15:42;38.63;;;16.77;;
68944;SDS011;55984;48.790;8.990;2023-04-19T02:18:09;35.03;;;16.47;;
68944;SDS011;55984;48.790;8.990;2023-04-19T02:20:37;36.07;;;16.10;;
68944;SDS011;55984;48.790;8.990;2023-04-19T02:23:03;40.00;;;17.17;;
68944;SDS011;55984;48.790;8.990;2023-04-19T02:25:40;36.47;;;17.20;;
68944;SDS011;55984;48.790;8.990;2023-04-19T02:28:14;40.30;;;16.87;;
68944;SDS011;55984;48.790;8.990;2023-04-19T02:30:40;37.40;;;18.00;;
68944;SDS011;55984;48.790;8.990;2023-04-19T02:33:11;39.07;;;17.10;;
68944;SDS011;55984;48.790;8.990;2023-04-19T02:35:48;33.93;;;17.30;;
68944;SDS011;55984;48.790;8.990;2023-04-19T02:38:14;41.17;;;18.97;;
68944;SDS011;55984;48.790;8.990;2023-04-19T02:40:51;39.63;;;16.10;;
68944;SDS011;55984;48.790;8.990;2023-04-19T02:43:24;41.37;;;18.10;;
68944;SDS011;55984;48.790;8.990;2023-04-19T02:45:51;41.40;;;17.33;;
68944;SDS011;55984;48.790;8.990;2023-04-19T02:51:01;41.17;;;19.30;;
68944;SDS011;55984;48.790;8.990;2023-04-19T02:53:36;43.40;;;18.87;;
68944;SDS011;55984;48.790;8.990;2023-04-19T03:03:44;45.03;;;19.27;;
68944;SDS011;55984;48.790;8.990;2023-04-19T03:06:11;34.30;;;16.73;;
68944;SDS011;55984;48.790;8.990;2023-04-19T03:08:37;35.80;;;17.00;;
68944;SDS011;55984;48.790;8.990;2023-04-19T03:11:03;41.23;;;17.73;;
68944;SDS011;55984;48.790;8.990;2023-04-19T03:13:30;35.67;;;17.50;;
68944;SDS011;55984;48.790;8.990;2023-04-19T03:15:57;37.63;;;18.70;;
68944;SDS011;55984;48.790;8.990;2023-04-19T03:18:22;37.40;;;18.53;;
68944;SDS011;55984;48.790;8.990;2023-04-19T03:20:49;44.20;;;19.57;;
68944;SDS011;55984;48.790;8.990;2023-04-19T03:23:15;36.13;;;17.57;;
68944;SDS011;55984;48.790;8.990;2023-04-19T03:25:41;40.60;;;18.27;;
68944;SDS011;55984;48.790;8.990;2023-04-19T03:28:07;43.87;;;18.93;;
68944;SDS011;55984;48.790;8.990;2023-04-19T03:30:32;43.17;;;18.10;;
68944;SDS011;55984;48.790;8.990;2023-04-19T03:32:58;44.27;;;19.20;;
68944;SDS011;55984;48.790;8.990;2023-04-19T03:35:24;39.10;;;18.03;;
68944;SDS011;55984;48.790;8.990;2023-04-19T03:37:50;40.33;;;17.17;;
68944;SDS011;55984;48.790;8.990;2023-04-19T03:40:16;37.00;;;17.43;;
68944;SDS011;55984;48.790;8.990;2023-04-19T03:42:42;41.70;;;18.83;;
68944;SDS011;55984;48.790;8.990;2023-04-19T03:45:08;45.60;;;18.43;;
68944;SDS011;55984;48.790;8.990;2023-04-19T03:47:34;38.97;;;17.70;;
68944;SDS011;55984;48.790;8.990;2023-04-19T03:50:00;38.77;;;17.90;;
68944;SDS011;55984;48.790;8.990;2023-04-19T03:52:26;43.23;;;19.03;;
68944;SDS011;55984;48.790;8.990;2023-04-19T03:54:52;50.70;;;20.90;;
68944;SDS011;55984;48.790;8.990;2023-04-19T03:57:17;43.70;;;19.97;;
68944;SDS011;55984;48.790;8.990;2023-04-19T03:59:43;42.70;;;18.27;;
68944;SDS011;55984;48.790;8.990;2023-04-19T04:02:09;47.57;;;20.80;;
68944;SDS011;55984;48.790;8.990;2023-04-19T04:04:35;46.93;;;19.60;;
68944;SDS011;55984;48.790;8.990;2023-04-19T04:07:01;48.43;;;18.80;;
68944;SDS011;55984;48.790;8.990;2023-04-19T04:09:27;44.03;;;19.30;;
68944;SDS011;55984;48.790;8.990;2023-04-19T04:11:54;47.47;;;20.30;;
68944;SDS011;55984;48.790;8.990;2023-04-19T04:14:20;45.87;;;20.33;;
68944;SDS011;55984;48.790;8.990;2023-04-19T04:16:46;48.00;;;19.67;;
68944;SDS011;55984;48.790;8.990;2023-04-19T04:21:48;42.93;;;18.37;;
68944;SDS011;55984;48.790;8.990;2023-04-19T04:24:14;43.60;;;19.80;;
68944;SDS011;55984;48.790;8.990;2023-04-19T04:26:44;45.23;;;19.80;;
68944;SDS011;55984;48.790;8.990;2023-04-19T04:29:10;40.30;;;18.60;;
68944;SDS011;55984;48.790;8.990;2023-04-19T04:31:36;42.07;;;18.90;;
68944;SDS011;55984;48.790;8.990;2023-04-19T04:34:02;42.53;;;19.00;;
68944;SDS011;55984;48.790;8.990;2023-04-19T04:36:28;45.77;;;18.87;;
68944;SDS011;55984;48.790;8.990;2023-04-19T04:38:55;41.83;;;18.47;;
68944;SDS011;55984;48.790;8.990;2023-04-19T04:41:21;42.80;;;19.07;;
68944;SDS011;55984;48.790;8.990;2023-04-19T04:43:47;39.73;;;18.60;;
68944;SDS011;55984;48.790;8.990;2023-04-19T04:46:15;42.50;;;19.30;;
68944;SDS011;55984;48.790;8.990;2023-04-19T04:48:41;40.27;;;18.47;;
68944;SDS011;55984;48.790;8.990;2023-04-19T04:51:07;40.97;;;18.33;;
68944;SDS011;55984;48.790;8.990;2023-04-19T04:53:33;40.13;;;18.37;;
68944;SDS011;55984;48.790;8.990;2023-04-19T04:55:59;39.80;;;18.40;;
68944;SDS011;55984;48.790;8.990;2023-04-19T04:58:25;41.00;;;18.33;;
68944;SDS011;55984;48.790;8.990;2023-04-19T05:00:50;37.00;;;17.90;;
68944;SDS011;55984;48.790;8.990;2023-04-19T05:03:17;38.30;;;17.70;;
68944;SDS011;55984;48.790;8.990;2023-04-19T05:05:43;39.30;;;17.43;;
68944;SDS011;55984;48.790;8.990;2023-04-19T05:08:09;42.13;;;17.90;;
68944;SDS011;55984;48.790;8.990;2023-04-19T05:10:35;42.90;;;17.63;;
68944;SDS011;55984;48.790;8.990;2023-04-19T05:13:01;44.70;;;19.37;;
68944;SDS011;55984;48.790;8.990;2023-04-19T05:15:27;37.47;;;17.00;;
68944;SDS011;55984;48.790;8.990;2023-04-19T05:17:53;44.27;;;17.50;;
68944;SDS011;55984;48.790;8.990;2023-04-19T05:20:19;40.40;;;18.13;;
68944;SDS011;55984;48.790;8.990;2023-04-19T05:22:45;40.80;;;18.23;;
68944;SDS011;55984;48.790;8.990;2023-04-19T05:25:11;45.20;;;16.67;;
68944;SDS011;55984;48.790;8.990;2023-04-19T05:27:37;39.03;;;16.73;;
68944;SDS011;55984;48.790;8.990;2023-04-19T05:30:03;40.50;;;18.50;;
68944;SDS011;55984;48.790;8.990;2023-04-19T05:32:31;45.27;;;17.10;;
68944;SDS011;55984;48.790;8.990;2023-04-19T05:34:56;37.00;;;15.60;;
68944;SDS011;55984;48.790;8.990;2023-04-19T05:37:22;37.73;;;17.87;;
68944;SDS011;55984;48.790;8.990;2023-04-19T05:39:48;38.07;;;16.20;;
68944;SDS011;55984;48.790;8.990;2023-04-19T05:42:15;36.27;;;16.60;;
68944;SDS011;55984;48.790;8.990;2023-04-19T05:44:41;35.53;;;17.30;;
68944;SDS011;55984;48.790;8.990;2023-04-19T05:47:07;37.93;;;16.40;;
68944;SDS011;55984;48.790;8.990;2023-04-19T05:49:33;42.53;;;18.30;;
68944;SDS011;55984;48.790;8.990;2023-04-19T05:51:59;36.60;;;17.10;;
68944;SDS011;55984;48.790;8.990;2023-04-19T05:54:25;62.13;;;18.27;;
68944;SDS011;55984;48.790;8.990;2023-04-19T05:56:52;105.33;;;23.00;;
68944;SDS011;55984;48.790;8.990;2023-04-19T05:59:18;43.67;;;18.43;;
68944;SDS011;55984;48.790;8.990;2023-04-19T06:01:43;40.70;;;17.47;;
68944;SDS011;55984;48.790;8.990;2023-04-19T06:04:09;39.77;;;16.73;;
68944;SDS011;55984;48.790;8.990;2023-04-19T06:06:35;37.57;;;16.23;;
68944;SDS011;55984;48.790;8.990;2023-04-19T06:09:01;40.73;;;17.20;;
68944;SDS011;55984;48.790;8.990;2023-04-19T06:11:28;52.60;;;18.93;;
68944;SDS011;55984;48.790;8.990;2023-04-19T06:13:54;79.40;;;19.23;;
68944;SDS011;55984;48.790;8.990;2023-04-19T06:16:21;51.07;;;17.33;;
68944;SDS011;55984;48.790;8.990;2023-04-19T06:18:47;44.03;;;17.60;;
68944;SDS011;55984;48.790;8.990;2023-04-19T06:21:13;33.63;;;15.50;;
68944;SDS011;55984;48.790;8.990;2023-04-19T06:23:39;36.10;;;16.70;;
68944;SDS011;55984;48.790;8.990;2023-04-19T06:26:05;39.03;;;16.23;;
68944;SDS011;55984;48.790;8.990;2023-04-19T06:28:31;36.30;;;15.80;;
68944;SDS011;55984;48.790;8.990;2023-04-19T06:30:57;32.20;;;16.27;;
68944;SDS011;55984;48.790;8.990;2023-04-19T06:33:23;37.43;;;15.63;;
68944;SDS011;55984;48.790;8.990;2023-04-19T06:35:49;36.77;;;16.33;;
68944;SDS011;55984;48.790;8.990;2023-04-19T06:38:16;31.87;;;15.63;;
68944;SDS011;55984;48.790;8.990;2023-04-19T06:40:42;33.67;;;14.60;;
68944;SDS011;55984;48.790;8.990;2023-04-19T06:43:07;33.73;;;15.00;;
68944;SDS011;55984;48.790;8.990;2023-04-19T06:45:33;34.00;;;16.30;;
68944;SDS011;55984;48.790;8.990;2023-04-19T06:48:00;27.93;;;14.33;;
68944;SDS011;55984;48.790;8.990;2023-04-19T06:50:26;30.93;;;15.10;;
68944;SDS011;55984;48.790;8.990;2023-04-19T06:55:21;35.03;;;14.43;;
68944;SDS011;55984;48.790;8.990;2023-04-19T06:57:47;29.93;;;14.93;;
68944;SDS011;55984;48.790;8.990;2023-04-19T07:00:13;30.43;;;15.03;;
68944;SDS011;55984;48.790;8.990;2023-04-19T07:02:39;32.93;;;14.70;;
68944;SDS011;55984;48.790;8.990;2023-04-19T07:05:05;31.00;;;16.07;;
68944;SDS011;55984;48.790;8.990;2023-04-19T07:07:32;27.10;;;14.40;;
68944;SDS011;55984;48.790;8.990;2023-04-19T07:09:57;28.63;;;13.43;;
68944;SDS011;55984;48.790;8.990;2023-04-19T07:12:23;31.90;;;14.10;;
68944;SDS011;55984;48.790;8.990;2023-04-19T07:14:49;28.87;;;14.03;;
68944;SDS011;55984;48.790;8.990;2023-04-19T07:17:20;34.13;;;14.77;;
68944;SDS011;55984;48.790;8.990;2023-04-19T07:19:47;31.67;;;14.70;;
68944;SDS011;55984;48.790;8.990;2023-04-19T07:22:13;31.03;;;14.47;;
68944;SDS011;55984;48.790;8.990;2023-04-19T07:24:39;30.20;;;14.93;;
68944;SDS011;55984;48.790;8.990;2023-04-19T07:27:07;29.50;;;14.73;;
68944;SDS011;55984;48.790;8.990;2023-04-19T07:29:36;30.77;;;15.50;;
68944;SDS011;55984;48.790;8.990;2023-04-19T07:32:02;29.27;;;13.73;;
68944;SDS011;55984;48.790;8.990;2023-04-19T07:34:28;29.77;;;14.90;;
68944;SDS011;55984;48.790;8.990;2023-04-19T07:36:54;28.73;;;14.47;;
68944;SDS011;55984;48.790;8.990;2023-04-19T07:39:20;28.60;;;14.13;;
68944;SDS011;55984;48.790;8.990;2023-04-19T07:41:46;31.27;;;14.30;;
68944;SDS011;55984;48.790;8.990;2023-04-19T07:44:12;26.83;;;14.80;;
68944;SDS011;55984;48.790;8.990;2023-04-19T07:46:45;28.03;;;15.00;;
68944;SDS011;55984;48.790;8.990;2023-04-19T07:49:11;27.57;;;13.80;;
68944;SDS011;55984;48.790;8.990;2023-04-19T07:51:38;26.80;;;13.73;;
68944;SDS011;55984;48.790;8.990;2023-04-19T07:54:06;26.93;;;13.90;;
68944;SDS011;55984;48.790;8.990;2023-04-19T07:56:33;27.20;;;14.20;;
68944;SDS011;55984;48.790;8.990;2023-04-19T07:58:59;27.53;;;12.97;;
68944;SDS011;55984;48.790;8.990;2023-04-19T08:01:25;28.50;;;14.17;;
68944;SDS011;55984;48.790;8.990;2023-04-19T08:03:51;42.03;;;15.20;;
68944;SDS011;55984;48.790;8.990;2023-04-19T08:06:18;26.37;;;13.30;;
68944;SDS011;55984;48.790;8.990;2023-04-19T08:08:45;29.17;;;14.17;;
68944;SDS011;55984;48.790;8.990;2023-04-19T08:11:11;27.30;;;13.53;;
68944;SDS011;55984;48.790;8.990;2023-04-19T08:13:37;23.07;;;12.63;;
68944;SDS011;55984;48.790;8.990;2023-04-19T08:16:03;21.00;;;12.00;;
68944;SDS011;55984;48.790;8.990;2023-04-19T08:18:30;20.87;;;12.60;;
68944;SDS011;55984;48.790;8.990;2023-04-19T08:20:56;21.20;;;12.73;;
68944;SDS011;55984;48.790;8.990;2023-04-19T08:23:22;28.07;;;12.20;;
68944;SDS011;55984;48.790;8.990;2023-04-19T08:25:48;23.70;;;13.40;;
68944;SDS011;55984;48.790;8.990;2023-04-19T08:28:15;24.70;;;13.23;;
68944;SDS011;55984;48.790;8.990;2023-04-19T08:30:42;23.97;;;13.30;;
68944;SDS011;55984;48.790;8.990;2023-04-19T08:33:08;24.67;;;12.93;;
68944;SDS011;55984;48.790;8.990;2023-04-19T08:35:36;24.73;;;12.30;;
68944;SDS011;55984;48.790;8.990;2023-04-19T08:38:08;21.97;;;11.53;;
68944;SDS011;55984;48.790;8.990;2023-04-19T08:40:34;27.67;;;13.03;;
68944;SDS011;55984;48.790;8.990;2023-04-19T08:43:06;19.73;;;10.60;;
68944;SDS011;55984;48.790;8.990;2023-04-19T08:45:32;21.97;;;11.10;;
68944;SDS011;55984;48.790;8.990;2023-04-19T08:47:58;21.93;;;11.27;;
68944;SDS011;55984;48.790;8.990;2023-04-19T08:50:26;26.77;;;12.10;;
68944;SDS011;55984;48.790;8.990;2023-04-19T08:52:53;21.50;;;12.33;;
68944;SDS011;55984;48.790;8.990;2023-04-19T08:55:20;38.73;;;14.00;;
68944;SDS011;55984;48.790;8.990;2023-04-19T08:57:46;40.70;;;14.17;;
68944;SDS011;55984;48.790;8.990;2023-04-19T09:00:12;22.57;;;12.27;;
68944;SDS011;55984;48.790;8.990;2023-04-19T09:02:43;39.07;;;13.13;;
68944;SDS011;55984;48.790;8.990;2023-04-19T09:05:11;28.33;;;11.40;;
68944;SDS011;55984;48.790;8.990;2023-04-19T09:07:39;21.33;;;10.93;;
68944;SDS011;55984;48.790;8.990;2023-04-19T09:10:09;25.97;;;11.70;;
68944;SDS011;55984;48.790;8.990;2023-04-19T09:12:37;40.37;;;12.93;;
68944;SDS011;55984;48.790;8.990;2023-04-19T09:15:05;34.37;;;11.33;;
68944;SDS011;55984;48.790;8.990;2023-04-19T09:17:34;23.43;;;12.07;;
68944;SDS011;55984;48.790;8.990;2023-04-19T09:20:01;24.47;;;13.30;;
68944;SDS011;55984;48.790;8.990;2023-04-19T09:22:28;25.77;;;12.20;;
68944;SDS011;55984;48.790;8.990;2023-04-19T09:24:57;24.40;;;12.03;;
68944;SDS011;55984;48.790;8.990;2023-04-19T09:27:25;25.23;;;13.13;;
68944;SDS011;55984;48.790;8.990;2023-04-19T09:29:52;23.90;;;12.40;;
68944;SDS011;55984;48.790;8.990;2023-04-19T09:32:19;25.77;;;12.47;;
68944;SDS011;55984;48.790;8.990;2023-04-19T09:34:56;20.80;;;12.10;;
68944;SDS011;55984;48.790;8.990;2023-04-19T09:37:23;99.90;;;17.07;;
68944;SDS011;55984;48.790;8.990;2023-04-19T09:39:51;23.20;;;11.47;;
68944;SDS011;55984;48.790;8.990;2023-04-19T09:42:17;29.77;;;12.60;;
68944;SDS011;55984;48.790;8.990;2023-04-19T09:44:57;25.90;;;12.50;;
68944;SDS011;55984;48.790;8.990;2023-04-19T09:47:24;21.17;;;11.70;;
68944;SDS011;55984;48.790;8.990;2023-04-19T09:52:51;20.80;;;11.00;;
68944;SDS011;55984;48.790;8.990;2023-04-19T09:55:18;47.47;;;14.20;;
68944;SDS011;55984;48.790;8.990;2023-04-19T09:57:44;132.73;;;20.60;;
68944;SDS011;55984;48.790;8.990;2023-04-19T10:00:10;30.13;;;12.20;;
68944;SDS011;55984;48.790;8.990;2023-04-19T10:02:39;83.77;;;16.77;;
68944;SDS011;55984;48.790;8.990;2023-04-19T10:05:07;19.07;;;11.50;;
68944;SDS011;55984;48.790;8.990;2023-04-19T10:07:34;45.07;;;14.93;;
68944;SDS011;55984;48.790;8.990;2023-04-19T10:10:01;93.43;;;18.13;;
68944;SDS011;55984;48.790;8.990;2023-04-19T10:12:28;33.87;;;12.80;;
68944;SDS011;55984;48.790;8.990;2023-04-19T10:14:56;309.03;;;31.50;;
68944;SDS011;55984;48.790;8.990;2023-04-19T10:17:22;24.47;;;12.20;;
68944;SDS011;55984;48.790;8.990;2023-04-19T10:19:55;21.33;;;11.50;;
68944;SDS011;55984;48.790;8.990;2023-04-19T10:22:28;20.10;;;11.50;;
68944;SDS011;55984;48.790;8.990;2023-04-19T10:25:11;22.63;;;12.27;;
68944;SDS011;55984;48.790;8.990;2023-04-19T10:27:39;22.20;;;11.70;;
68944;SDS011;55984;48.790;8.990;2023-04-19T10:30:31;21.90;;;11.90;;
68944;SDS011;55984;48.790;8.990;2023-04-19T10:32:56;21.50;;;11.40;;
68944;SDS011;55984;48.790;8.990;2023-04-19T10:40:52;24.03;;;10.60;;
68944;SDS011;55984;48.790;8.990;2023-04-19T10:43:34;18.67;;;9.60;;
68944;SDS011;55984;48.790;8.990;2023-04-19T10:48:49;14.73;;;9.93;;
68944;SDS011;55984;48.790;8.990;2023-04-19T10:51:20;26.37;;;10.17;;
68944;SDS011;55984;48.790;8.990;2023-04-19T10:53:50;19.00;;;10.20;;
68944;SDS011;55984;48.790;8.990;2023-04-19T11:05:07;25.87;;;11.50;;
68944;SDS011;55984;48.790;8.990;2023-04-19T11:07:15;21.63;;;12.03;;
68944;SDS011;55984;48.790;8.990;2023-04-19T11:09:46;19.80;;;11.17;;
68944;SDS011;55984;48.790;8.990;2023-04-19T11:12:14;20.20;;;11.53;;
68944;SDS011;55984;48.790;8.990;2023-04-19T11:14:43;19.20;;;11.13;;
68944;SDS011;55984;48.790;8.990;2023-04-19T11:19:44;21.57;;;11.00;;
68944;SDS011;55984;48.790;8.990;2023-04-19T11:22:10;20.50;;;11.00;;
68944;SDS011;55984;48.790;8.990;2023-04-19T11:24:36;21.63;;;11.97;;
68944;SDS011;55984;48.790;8.990;2023-04-19T11:27:06;19.20;;;10.80;;
68944;SDS011;55984;48.790;8.990;2023-04-19T11:29:34;22.80;;;12.40;;
68944;SDS011;55984;48.790;8.990;2023-04-19T11:32:00;21.50;;;11.10;;
68944;SDS011;55984;48.790;8.990;2023-04-19T11:34:27;32.30;;;12.47;;
68944;SDS011;55984;48.790;8.990;2023-04-19T11:36:56;24.37;;;12.07;;
68944;SDS011;55984;48.790;8.990;2023-04-19T11:39:21;26.00;;;14.00;;
68944;SDS011;55984;48.790;8.990;2023-04-19T11:41:47;25.10;;;14.07;;
68944;SDS011;55984;48.790;8.990;2023-04-19T11:44:16;24.77;;;13.30;;
68944;SDS011;55984;48.790;8.990;2023-04-19T11:47:06;27.53;;;14.77;;
68944;SDS011;55984;48.790;8.990;2023-04-19T11:49:32;31.80;;;13.77;;
68944;SDS011;55984;48.790;8.990;2023-04-19T11:51:58;30.60;;;13.83;;
68944;SDS011;55984;48.790;8.990;2023-04-19T11:54:26;32.20;;;14.80;;
68944;SDS011;55984;48.790;8.990;2023-04-19T11:57:05;26.17;;;14.13;;
68944;SDS011;55984;48.790;8.990;2023-04-19T11:59:32;30.93;;;14.90;;
68944;SDS011;55984;48.790;8.990;2023-04-19T12:02:09;30.80;;;15.60;;
68944;SDS011;55984;48.790;8.990;2023-04-19T12:04:36;29.63;;;15.17;;
68944;SDS011;55984;48.790;8.990;2023-04-19T12:07:04;30.23;;;16.10;;
68944;SDS011;55984;48.790;8.990;2023-04-19T12:09:34;30.90;;;15.30;;
68944;SDS011;55984;48.790;8.990;2023-04-19T12:12:02;32.20;;;16.83;;
68944;SDS011;55984;48.790;8.990;2023-04-19T12:14:29;34.73;;;18.37;;
68944;SDS011;55984;48.790;8.990;2023-04-19T12:19:35;42.27;;;19.03;;
68944;SDS011;55984;48.790;8.990;2023-04-19T12:22:08;41.27;;;19.70;;
68944;SDS011;55984;48.790;8.990;2023-04-19T12:24:36;42.50;;;19.53;;
68944;SDS011;55984;48.790;8.990;2023-04-19T12:27:02;45.17;;;21.33;;
68944;SDS011;55984;48.790;8.990;2023-04-19T12:29:28;42.10;;;20.03;;
68944;SDS011;55984;48.790;8.990;2023-04-19T12:31:54;43.67;;;20.13;;
68944;SDS011;55984;48.790;8.990;2023-04-19T12:34:20;45.77;;;20.57;;
68944;SDS011;55984;48.790;8.990;2023-04-19T12:36:54;50.13;;;20.23;;
68944;SDS011;55984;48.790;8.990;2023-04-19T12:39:20;51.80;;;22.57;;
68944;SDS011;55984;48.790;8.990;2023-04-19T12:41:46;46.87;;;21.27;;
68944;SDS011;55984;48.790;8.990;2023-04-19T12:44:13;48.93;;;21.50;;
68944;SDS011;55984;48.790;8.990;2023-04-19T12:46:39;48.10;;;21.60;;
68944;SDS011;55984;48.790;8.990;2023-04-19T12:49:06;48.70;;;22.07;;
68944;SDS011;55984;48.790;8.990;2023-04-19T12:51:32;52.37;;;24.03;;
68944;SDS011;55984;48.790;8.990;2023-04-19T12:53:58;49.70;;;22.97;;
68944;SDS011;55984;48.790;8.990;2023-04-19T12:56:25;52.87;;;23.40;;
68944;SDS011;55984;48.790;8.990;2023-04-19T12:58:51;52.77;;;23.83;;
68944;SDS011;55984;48.790;8.990;2023-04-19T13:01:17;54.23;;;23.50;;
68944;SDS011;55984;48.790;8.990;2023-04-19T13:03:44;59.70;;;23.00;;
68944;SDS011;55984;48.790;8.990;2023-04-19T13:06:10;50.63;;;21.57;;
68944;SDS011;55984;48.790;8.990;2023-04-19T13:08:40;43.07;;;20.17;;
68944;SDS011;55984;48.790;8.990;2023-04-19T13:11:06;42.77;;;19.60;;
68944;SDS011;55984;48.790;8.990;2023-04-19T13:13:33;39.63;;;18.77;;
68944;SDS011;55984;48.790;8.990;2023-04-19T13:15:59;40.57;;;18.20;;
68944;SDS011;55984;48.790;8.990;2023-04-19T13:18:25;35.90;;;17.77;;
68944;SDS011;55984;48.790;8.990;2023-04-19T13:20:51;37.50;;;18.60;;
68944;SDS011;55984;48.790;8.990;2023-04-19T13:23:18;38.60;;;17.23;;
68944;SDS011;55984;48.790;8.990;2023-04-19T13:25:45;38.87;;;18.07;;
68944;SDS011;55984;48.790;8.990;2023-04-19T13:28:11;34.43;;;17.27;;
68944;SDS011;55984;48.790;8.990;2023-04-19T13:30:37;42.40;;;18.53;;
68944;SDS011;55984;48.790;8.990;2023-04-19T13:33:04;33.17;;;17.00;;
68944;SDS011;55984;48.790;8.990;2023-04-19T13:35:30;37.57;;;18.13;;
68944;SDS011;55984;48.790;8.990;2023-04-19T13:37:56;39.23;;;18.20;;
68944;SDS011;55984;48.790;8.990;2023-04-19T13:40:21;38.13;;;18.27;;
68944;SDS011;55984;48.790;8.990;2023-04-19T13:42:47;40.70;;;18.20;;
68944;SDS011;55984;48.790;8.990;2023-04-19T13:45:13;36.67;;;18.27;;
68944;SDS011;55984;48.790;8.990;2023-04-19T13:47:39;42.30;;;17.23;;
68944;SDS011;55984;48.790;8.990;2023-04-19T13:50:05;38.30;;;18.40;;
68944;SDS011;55984;48.790;8.990;2023-04-19T13:52:31;38.40;;;17.50;;
68944;SDS011;55984;48.790;8.990;2023-04-19T13:54:58;37.77;;;17.80;;
68944;SDS011;55984;48.790;8.990;2023-04-19T13:57:24;36.27;;;17.73;;
68944;SDS011;55984;48.790;8.990;2023-04-19T13:59:50;40.70;;;19.07;;
68944;SDS011;55984;48.790;8.990;2023-04-19T14:02:16;40.70;;;17.60;;
68944;SDS011;55984;48.790;8.990;2023-04-19T14:04:42;38.97;;;19.10;;
68944;SDS011;55984;48.790;8.990;2023-04-19T14:07:09;35.23;;;18.20;;
68944;SDS011;55984;48.790;8.990;2023-04-19T14:09:35;36.83;;;18.27;;
68944;SDS011;55984;48.790;8.990;2023-04-19T14:12:01;34.17;;;17.23;;
68944;SDS011;55984;48.790;8.990;2023-04-19T14:14:28;37.87;;;18.60;;
68944;SDS011;55984;48.790;8.990;2023-04-19T14:16:54;38.60;;;16.87;;
68944;SDS011;55984;48.790;8.990;2023-04-19T14:19:20;36.77;;;17.67;;
68944;SDS011;55984;48.790;8.990;2023-04-19T14:21:46;36.67;;;17.03;;
68944;SDS011;55984;48.790;8.990;2023-04-19T14:24:12;37.20;;;16.63;;
68944;SDS011;55984;48.790;8.990;2023-04-19T14:26:38;33.13;;;16.50;;
68944;SDS011;55984;48.790;8.990;2023-04-19T14:29:03;35.43;;;17.70;;
68944;SDS011;55984;48.790;8.990;2023-04-19T14:31:31;28.73;;;15.80;;
68944;SDS011;55984;48.790;8.990;2023-04-19T14:33:58;33.93;;;16.57;;
68944;SDS011;55984;48.790;8.990;2023-04-19T14:36:25;33.33;;;16.23;;
68944;SDS011;55984;48.790;8.990;2023-04-19T14:38:51;46.53;;;18.20;;
68944;SDS011;55984;48.790;8.990;2023-04-19T14:41:17;35.20;;;16.93;;
68944;SDS011;55984;48.790;8.990;2023-04-19T14:43:43;37.73;;;18.00;;
68944;SDS011;55984;48.790;8.990;2023-04-19T14:46:10;30.57;;;16.43;;
68944;SDS011;55984;48.790;8.990;2023-04-19T14:48:36;30.10;;;16.10;;
68944;SDS011;55984;48.790;8.990;2023-04-19T14:51:02;31.70;;;15.63;;
68944;SDS011;55984;48.790;8.990;2023-04-19T14:53:28;32.93;;;14.53;;
68944;SDS011;55984;48.790;8.990;2023-04-19T14:55:54;26.20;;;14.60;;
68944;SDS011;55984;48.790;8.990;2023-04-19T14:58:19;33.23;;;14.03;;
68944;SDS011;55984;48.790;8.990;2023-04-19T15:00:45;32.23;;;15.20;;